This is the latest recevied weather packets stored in our database for station/object W1RCY. If no packets are shown the sender has not sent any weather packets the latest 10 day(s).
| Time | Temp. | Humidity | Pressure | Rain* | Wind** | Luminosity | Snow |
|---|---|---|---|---|---|---|---|
| 1778023024 | 18.89° C | 73% | 1004.6 hPa | 0 mm | - | 5 W/m² | - |
| 1778022723 | 18.89° C | 72% | 1004.6 hPa | 0 mm | - | 8 W/m² | - |
| 1778022421 | 18.89° C | 72% | 1004.4 hPa | 0 mm | - | 16 W/m² | - |
| 1778022117 | 18.89° C | 72% | 1004.4 hPa | 0 mm | - | 12 W/m² | - |
| 1778021813 | 18.89° C | 72% | 1004.3 hPa | 0 mm | - | 8 W/m² | - |
| 1778021510 | 18.89° C | 71% | 1004.6 hPa | 0 mm | - | 3 W/m² | - |
| 1778021206 | 19.44° C | 70% | 1004.6 hPa | 0 mm | - | 3 W/m² | - |
| 1778020903 | 20° C | 68% | 1004.4 hPa | 0 mm | - | 3 W/m² | - |
| 1778020596 | 20° C | 67% | 1004.5 hPa | 0 mm | - | 1 W/m² | - |
| 1778020291 | 21.11° C | 63% | 1004.4 hPa | 0 mm | - | 1 W/m² | - |
| 1778019987 | 25.56° C | 45% | 1004 hPa | 0 mm | - | 4 W/m² | - |
| 1778019684 | 25.56° C | 40% | 1003.3 hPa | 0 mm | - | 14 W/m² | - |
| 1778019381 | 25.56° C | 40% | 1003.1 hPa | 0 mm | - | 35 W/m² | - |
| 1778019077 | 25.56° C | 41% | 1002.9 hPa | 0 mm | - | 46 W/m² | - |
| 1778018775 | 25.56° C | 40% | 1002.7 hPa | 0 mm | - | 63 W/m² | - |
| 1778018472 | 26.11° C | 39% | 1002.8 hPa | 0 mm | - | 87 W/m² | - |
| 1778018170 | 26.11° C | 39% | 1002.6 hPa | 0 mm | - | 98 W/m² | - |
| 1778017868 | 26.11° C | 38% | 1002.6 hPa | 0 mm | - | 104 W/m² | - |
| 1778017566 | 26.11° C | 38% | 1002.5 hPa | 0 mm | - | 101 W/m² | - |
| 1778017262 | 26.11° C | 38% | 1002.6 hPa | 0 mm | - | 92 W/m² | - |
| 1778016960 | 26.11° C | 38% | 1002.5 hPa | 0 mm | - | 101 W/m² | - |
| 1778016656 | 26.67° C | 37% | 1002.5 hPa | 0 mm | - | 109 W/m² | - |
| 1778016352 | 26.67° C | 37% | 1002.3 hPa | 0 mm | - | 145 W/m² | - |
| 1778016050 | 26.67° C | 37% | 1002.4 hPa | 0 mm | - | 130 W/m² | - |
| 1778015747 | 26.67° C | 37% | 1002.2 hPa | 0 mm | - | 144 W/m² | - |
* Rain latest hour (hover to see other rain measurements)
** Current wind speed in m/s (hover to see current wind gust speed)